Flight Track Log - Related Links

Times and Time Zones

All times are in EDT time to prevent confusion due to time zone crossing. See the SLG1 flight status page for this flight to view local times or setup timezone preferences in your user account.

Time Position Orientation Groundspeed Altitude Reporting Facility
EDT Latitude Longitude Course Direction KTS MPH feet Rate Location/Type
Sat 10:30:06 PM 50.4333 -107.6500 21° North 160 184 9,600  Level Winnipeg Center
Sat 10:35:06 PM 50.6833 -107.5000 18° North 210 242 16,900 1,217 Climbing Winnipeg Center
Sat 10:36:06 PM 50.7500 -107.4667 14° North 260 299 16,900  Level Winnipeg Center
Sat 10:37:06 PM 50.8333 -107.4333 17° North 280 322 16,900  Level Winnipeg Center
Sat 10:38:06 PM 50.9000 -107.4000 25° Northeast 280 322 16,900  Level Winnipeg Center
Sat 10:39:06 PM 50.9667 -107.3500 14° North 280 322 16,900  Level Winnipeg Center
Sat 10:40:06 PM 51.0500 -107.3167 14° North 280 322 16,900  Level Winnipeg Center
Sat 10:41:06 PM 51.1333 -107.2833 17° North 280 322 16,900  Level Winnipeg Center
Sat 10:42:06 PM 51.2000 -107.2500 25° Northeast 280 322 16,900  Level Winnipeg Center
Sat 10:43:06 PM 51.2667 -107.2000 17° North 280 322 16,900  Level Winnipeg Center
Sat 10:44:06 PM 51.3333 -107.1667 17° North 280 322 16,900 -450 Level Winnipeg Center
Sat 10:45:06 PM 51.4333 -107.1167 25° Northeast 290 334 16,000 -1,100 Descending Winnipeg Center
Sat 10:46:06 PM 51.5000 -107.0667 14° North 300 345 14,700 -1,300 Descending Winnipeg Center
Sat 10:47:06 PM 51.5833 -107.0333 17° North 290 334 13,400 -1,300 Descending Winnipeg Center
Sat 10:48:06 PM 51.6500 -107.0000 32° Northeast 280 322 12,100 -1,500 Descending Winnipeg Center
Sat 10:49:06 PM 51.7167 -106.9333 25° Northeast 270 311 10,400 -1,650 Descending Winnipeg Center
Sat 10:50:06 PM 51.7833 -106.8833 22° Northeast 240 276 8,800 -1,350 Descending Winnipeg Center
Sat 10:51:06 PM 51.8333 -106.8500 25° Northeast 240 276 7,700 -1,050 Descending Winnipeg Center
Sat 10:52:06 PM 51.9000 -106.8000 22° Northeast 230 265 6,700 -950 Descending Winnipeg Center
Sat 10:53:06 PM 51.9500 -106.7667 25° Northeast 220 253 5,800 -1,000 Descending Winnipeg Center
Sat 10:54:06 PM 52.0167 -106.7167 17° North 220 253 4,700 -1,100 Descending Winnipeg Center
Sat 10:55:06 PM 52.0500 -106.7000 348° North 200 230 3,600 -1,000 Descending Winnipeg Center
Sat 10:56:06 PM 52.1000 -106.7167 360° North 150 173 2,700 -750 Descending Winnipeg Center
Sat 10:57:06 PM 52.1333 -106.7167 328° Northwest 120 138 2,100 -500 Descending Winnipeg Center
Sat 10:58:06 PM 52.1500 -106.7333 328° Northwest 90 104 1,700 -400 Descending Winnipeg Center

Login

Don't have an account? Register now (free) for customized features, flight alerts, and more!